createdAt,value
2022-11-28T00:00:33.454Z,17.38
2022-11-28T00:03:18.677Z,24.08
2022-11-28T00:06:05.944Z,16.92
2022-11-28T00:08:51.238Z,16.73
2022-11-28T00:11:38.662Z,17.83
2022-11-28T00:14:24.073Z,18.23
2022-11-28T00:17:09.514Z,21.38
2022-11-28T00:19:54.886Z,21.92
2022-11-28T00:22:40.535Z,17.73
2022-11-28T00:25:25.753Z,15.40
2022-11-28T00:28:11.308Z,15.90
2022-11-28T00:30:56.730Z,18.23
2022-11-28T00:33:42.432Z,16.58
2022-11-28T00:36:29.486Z,15.70
2022-11-28T00:39:16.219Z,16.02
2022-11-28T00:42:01.214Z,19.45
2022-11-28T00:44:47.173Z,14.40
2022-11-28T00:47:32.864Z,14.52
2022-11-28T00:50:18.436Z,16.23
2022-11-28T00:53:03.785Z,15.93
2022-11-28T00:55:49.360Z,14.00
2022-11-28T00:58:35.718Z,11.82
2022-11-28T01:01:22.667Z,13.32
2022-11-28T01:04:11.832Z,11.73
2022-11-28T01:06:57.740Z,12.00
2022-11-28T01:09:42.894Z,11.75
2022-11-28T01:12:28.224Z,11.30
2022-11-28T01:15:14.245Z,14.40
2022-11-28T01:17:59.766Z,12.75
2022-11-28T01:20:45.063Z,10.20
2022-11-28T01:23:30.565Z,9.07
2022-11-28T01:26:23.042Z,11.05
2022-11-28T01:29:09.526Z,12.98
2022-11-28T01:31:55.180Z,9.48
2022-11-28T01:34:41.001Z,10.45
2022-11-28T01:37:29.967Z,9.68
2022-11-28T01:40:15.062Z,15.93
2022-11-28T01:43:00.398Z,9.60
2022-11-28T01:45:46.266Z,9.73
2022-11-28T01:48:41.818Z,11.07
2022-11-28T01:51:27.594Z,9.73
2022-11-28T01:54:13.853Z,10.82
2022-11-28T01:57:03.470Z,10.77
2022-11-28T01:59:56.130Z,10.05
2022-11-28T02:03:26.294Z,9.75
2022-11-28T02:06:13.342Z,8.95
2022-11-28T02:08:58.829Z,11.20
2022-11-28T02:12:24.961Z,8.93
2022-11-28T02:15:20.608Z,9.25
2022-11-28T02:18:18.126Z,10.48
2022-11-28T02:21:24.854Z,11.73
2022-11-28T02:24:32.035Z,11.77
2022-11-28T02:27:47.786Z,6.63
2022-11-28T02:30:41.887Z,13.75
2022-11-28T02:33:48.720Z,10.68
2022-11-28T02:36:40.923Z,9.20
2022-11-28T02:39:59.542Z,8.10
2022-11-28T02:43:12.524Z,9.73
2022-11-28T02:46:09.705Z,9.55
2022-11-28T02:49:07.922Z,10.65
2022-11-28T02:52:01.315Z,9.35
2022-11-28T02:54:48.752Z,9.43
2022-11-28T02:57:49.125Z,8.98
2022-11-28T03:00:36.834Z,7.30
2022-11-28T03:03:22.174Z,12.02
2022-11-28T03:06:19.468Z,9.73
2022-11-28T03:09:30.370Z,9.23
2022-11-28T03:12:41.697Z,9.70
2022-11-28T03:15:39.080Z,6.88
2022-11-28T03:18:31.931Z,10.07
2022-11-28T03:21:40.511Z,9.50
2022-11-28T03:24:54.615Z,7.05
2022-11-28T03:27:48.073Z,11.07
2022-11-28T03:30:48.810Z,8.70
2022-11-28T03:33:42.042Z,7.60
2022-11-28T03:36:44.730Z,7.55
2022-11-28T03:39:35.672Z,7.43
2022-11-28T03:42:24.001Z,6.32
2022-11-28T03:45:18.700Z,8.40
2022-11-28T03:48:12.824Z,7.60
2022-11-28T03:51:07.210Z,7.20
2022-11-28T03:54:07.339Z,9.45
2022-11-28T03:57:00.012Z,11.73
2022-11-28T03:59:51.164Z,10.75
2022-11-28T04:02:48.549Z,7.88
2022-11-28T04:05:49.451Z,10.05
2022-11-28T04:08:43.002Z,6.03
2022-11-28T04:11:39.067Z,6.38
2022-11-28T04:14:31.603Z,6.40
2022-11-28T04:17:25.334Z,5.78
2022-11-28T04:20:15.201Z,8.48
2022-11-28T04:23:06.916Z,6.32
2022-11-28T04:26:14.165Z,7.93
2022-11-28T04:29:01.071Z,7.32
2022-11-28T04:31:48.894Z,6.00
2022-11-28T04:34:36.167Z,5.75
2022-11-28T04:37:24.952Z,8.27
2022-11-28T04:40:11.844Z,6.28
2022-11-28T04:43:02.264Z,6.07
2022-11-28T04:45:53.049Z,6.10
2022-11-28T04:48:38.453Z,6.47
2022-11-28T04:51:33.982Z,7.85
2022-11-28T04:54:29.234Z,7.93
2022-11-28T04:57:21.722Z,9.00
2022-11-28T05:00:10.617Z,8.32
2022-11-28T05:02:56.784Z,8.02
2022-11-28T05:05:47.522Z,6.18
2022-11-28T05:08:32.666Z,8.43
2022-11-28T05:11:18.170Z,8.32
2022-11-28T05:14:03.693Z,8.57
2022-11-28T05:16:49.500Z,6.93
2022-11-28T05:19:35.142Z,6.90
2022-11-28T05:22:20.442Z,6.38
2022-11-28T05:25:06.309Z,6.95
2022-11-28T05:27:51.598Z,6.82
2022-11-28T05:30:36.946Z,8.52
2022-11-28T05:33:22.232Z,7.20
2022-11-28T05:36:13.107Z,9.55
2022-11-28T05:38:58.831Z,9.68
2022-11-28T05:41:44.305Z,7.28
2022-11-28T05:44:29.722Z,6.78
2022-11-28T05:47:15.828Z,7.63
2022-11-28T05:50:01.108Z,7.28
2022-11-28T05:52:46.127Z,6.70
2022-11-28T05:55:31.617Z,11.05
2022-11-28T05:58:16.913Z,9.00
2022-11-28T06:01:17.313Z,9.90
2022-11-28T06:04:02.762Z,14.20
2022-11-28T06:06:50.277Z,11.43
2022-11-28T06:09:35.887Z,14.82
2022-11-28T06:12:21.335Z,15.45
2022-11-28T06:15:07.356Z,10.88
2022-11-28T06:17:52.735Z,14.05
2022-11-28T06:20:38.033Z,11.25
2022-11-28T06:23:24.661Z,11.18
2022-11-28T06:26:16.510Z,12.48
2022-11-28T06:29:01.691Z,14.63
2022-11-28T06:31:47.337Z,14.98
2022-11-28T06:34:32.808Z,12.35
2022-11-28T06:37:18.094Z,11.75
2022-11-28T06:40:04.751Z,15.20
2022-11-28T06:42:51.069Z,12.32
2022-11-28T06:45:36.310Z,13.68
2022-11-28T06:48:22.086Z,14.90
2022-11-28T06:51:07.812Z,14.13
2022-11-28T06:53:54.371Z,12.15
2022-11-28T06:56:41.426Z,16.25
2022-11-28T06:59:26.792Z,13.80
2022-11-28T07:02:12.164Z,12.52
2022-11-28T07:04:57.529Z,14.55
2022-11-28T07:07:53.675Z,16.65
2022-11-28T07:10:39.052Z,13.35
2022-11-28T07:13:24.706Z,11.48
2022-11-28T07:16:15.909Z,15.65
2022-11-28T07:19:01.482Z,13.63
2022-11-28T07:21:47.097Z,13.38
2022-11-28T07:24:33.383Z,14.95
2022-11-28T07:27:19.367Z,14.15
2022-11-28T07:30:05.417Z,16.15
2022-11-28T07:32:50.861Z,12.27
2022-11-28T07:35:36.075Z,16.65
2022-11-28T07:38:21.365Z,14.68
2022-11-28T07:41:09.375Z,18.70
2022-11-28T07:43:57.094Z,20.55
2022-11-28T07:46:42.599Z,16.27
2022-11-28T07:49:28.202Z,16.23
2022-11-28T07:52:13.585Z,15.50
2022-11-28T07:54:59.005Z,14.43
2022-11-28T07:57:44.375Z,13.52
2022-11-28T08:00:29.762Z,13.82
2022-11-28T08:03:14.967Z,14.85
2022-11-28T08:06:03.157Z,14.70
2022-11-28T08:08:49.875Z,14.82
2022-11-28T08:11:35.532Z,14.00
2022-11-28T08:14:20.834Z,14.25
2022-11-28T08:17:06.150Z,13.48
2022-11-28T08:19:51.466Z,16.10
2022-11-28T08:22:36.854Z,15.75
2022-11-28T08:25:22.437Z,10.75
2022-11-28T08:28:07.846Z,20.13
2022-11-28T08:30:53.237Z,17.08
2022-11-28T08:33:39.586Z,16.27
2022-11-28T08:36:25.349Z,14.73
2022-11-28T08:39:27.005Z,13.30
2022-11-28T08:42:12.584Z,11.50
2022-11-28T08:44:57.951Z,13.80
2022-11-28T08:47:43.391Z,12.75
2022-11-28T08:50:28.953Z,13.27
2022-11-28T08:53:18.488Z,10.85
2022-11-28T08:56:04.393Z,14.23
2022-11-28T08:58:49.858Z,11.13
2022-11-28T09:01:35.150Z,11.73
2022-11-28T09:04:21.316Z,10.95
2022-11-28T09:07:06.615Z,11.80
2022-11-28T09:09:51.894Z,12.60
2022-11-28T09:12:37.117Z,14.20
2022-11-28T09:15:22.292Z,11.35
2022-11-28T09:18:07.921Z,12.55
2022-11-28T09:20:58.758Z,13.35
2022-11-28T09:23:44.709Z,10.60
2022-11-28T09:26:30.265Z,13.90
2022-11-28T09:29:15.770Z,11.90
2022-11-28T09:32:00.840Z,11.52
2022-11-28T09:34:46.523Z,13.77
2022-11-28T09:37:32.015Z,15.43
2022-11-28T09:40:23.768Z,15.68
2022-11-28T09:43:42.570Z,10.48
2022-11-28T09:46:33.027Z,14.35
2022-11-28T09:49:25.329Z,12.32
2022-11-28T09:52:36.345Z,9.48
2022-11-28T09:55:43.447Z,13.63
2022-11-28T09:58:34.782Z,11.65
2022-11-28T10:01:38.044Z,9.35
2022-11-28T10:07:54.621Z,14.68
2022-11-28T10:10:50.313Z,11.65
2022-11-28T10:17:17.004Z,12.43
2022-11-28T10:20:09.107Z,10.93
2022-11-28T10:23:32.617Z,11.13
2022-11-28T10:26:41.192Z,12.65
2022-11-28T10:29:55.103Z,9.77
2022-11-28T10:32:45.043Z,11.75
2022-11-28T10:35:53.757Z,11.52
2022-11-28T10:38:39.164Z,8.10
2022-11-28T10:41:36.845Z,13.85
2022-11-28T10:44:34.982Z,13.00
2022-11-28T10:48:01.095Z,12.07
2022-11-28T10:51:15.904Z,13.43
2022-11-28T10:54:22.147Z,14.73
2022-11-28T10:57:15.561Z,9.90
2022-11-28T11:00:14.533Z,10.75
2022-11-28T11:03:02.401Z,12.70
2022-11-28T11:05:47.793Z,13.52
2022-11-28T11:08:38.876Z,11.65
2022-11-28T11:11:37.123Z,9.43
2022-11-28T11:14:36.964Z,12.82
2022-11-28T11:17:35.911Z,13.52
2022-11-28T11:20:33.940Z,11.20
2022-11-28T11:23:22.027Z,11.93
2022-11-28T11:26:10.341Z,10.70
2022-11-28T11:28:56.782Z,12.20
2022-11-28T11:31:51.687Z,11.55
2022-11-28T11:34:44.127Z,12.60
2022-11-28T11:37:36.668Z,10.10
2022-11-28T11:40:28.895Z,13.13
2022-11-28T11:43:28.146Z,9.93
2022-11-28T11:46:15.674Z,11.93
2022-11-28T11:49:00.686Z,10.93
2022-11-28T11:51:56.657Z,12.20
2022-11-28T11:54:57.336Z,12.18
2022-11-28T11:57:53.533Z,12.20
2022-11-28T12:00:41.173Z,10.00
2022-11-28T12:03:33.632Z,9.68
2022-11-28T12:06:27.907Z,12.88
2022-11-28T12:09:41.960Z,10.73
2022-11-28T12:12:32.344Z,10.60
2022-11-28T12:15:39.402Z,13.02
2022-11-28T12:18:46.299Z,12.25
2022-11-28T12:21:57.570Z,10.98
2022-11-28T12:25:25.651Z,11.77
2022-11-28T12:28:28.846Z,11.13
2022-11-28T12:31:47.824Z,10.20
2022-11-28T12:35:02.475Z,11.95
2022-11-28T12:38:13.249Z,10.95
2022-11-28T12:41:11.763Z,11.20
2022-11-28T12:44:05.683Z,11.00
2022-11-28T12:47:15.110Z,11.07
2022-11-28T12:50:26.102Z,12.43
2022-11-28T12:53:36.498Z,10.55
2022-11-28T12:56:21.598Z,10.68
2022-11-28T12:59:28.451Z,10.68
2022-11-28T13:02:26.397Z,12.52
2022-11-28T13:05:36.688Z,13.93
2022-11-28T13:08:37.280Z,12.18
2022-11-28T13:11:48.942Z,12.00
2022-11-28T13:14:56.799Z,11.60
2022-11-28T13:17:57.283Z,12.13
2022-11-28T13:20:48.437Z,23.08
2022-11-28T13:23:53.768Z,14.60
2022-11-28T13:26:58.972Z,13.55
2022-11-28T13:29:52.001Z,16.67
2022-11-28T13:33:28.460Z,12.43
2022-11-28T13:40:12.089Z,14.68
2022-11-28T13:43:48.112Z,15.30
2022-11-28T13:46:33.871Z,15.18
2022-11-28T13:49:23.084Z,13.82
2022-11-28T13:52:32.329Z,13.55
2022-11-28T13:55:39.040Z,14.82
2022-11-28T13:58:28.664Z,14.77
2022-11-28T14:01:17.764Z,13.57
2022-11-28T14:04:15.666Z,14.48
2022-11-28T14:07:04.155Z,15.75
2022-11-28T14:10:04.055Z,14.07
2022-11-28T14:13:23.049Z,13.60
2022-11-28T14:16:46.854Z,13.45
2022-11-28T14:20:06.554Z,16.13
2022-11-28T14:23:10.867Z,12.75
2022-11-28T14:25:56.638Z,12.55
2022-11-28T14:28:44.537Z,11.95
2022-11-28T14:31:32.046Z,13.80
2022-11-28T14:34:39.633Z,15.75
2022-11-28T14:37:34.724Z,14.07
2022-11-28T14:41:02.952Z,13.85
2022-11-28T14:43:48.689Z,15.20
2022-11-28T14:46:34.182Z,13.80
2022-11-28T14:49:21.462Z,15.05
2022-11-28T14:52:37.025Z,14.25
2022-11-28T14:55:21.789Z,14.20
2022-11-28T14:58:16.312Z,16.75
2022-11-28T15:01:11.507Z,16.00
2022-11-28T15:04:28.541Z,13.35
2022-11-28T15:07:41.074Z,13.45
2022-11-28T15:10:31.997Z,10.93
2022-11-28T15:13:45.489Z,18.58
2022-11-28T15:16:32.495Z,14.13
2022-11-28T15:19:29.058Z,12.82
2022-11-28T15:22:47.106Z,11.60
2022-11-28T15:25:37.366Z,16.77
2022-11-28T15:28:25.362Z,13.80
2022-11-28T15:31:21.642Z,13.10
2022-11-28T15:34:09.964Z,16.95
2022-11-28T15:36:58.675Z,18.23
2022-11-28T15:39:47.772Z,13.63
2022-11-28T15:42:34.936Z,15.05
2022-11-28T15:45:28.936Z,14.38
2022-11-28T15:48:50.649Z,17.45
2022-11-28T15:51:36.113Z,22.10
2022-11-28T15:54:33.179Z,18.92
2022-11-28T15:57:21.316Z,17.90
2022-11-28T16:00:12.121Z,15.20
2022-11-28T16:02:57.566Z,23.48
2022-11-28T16:05:43.635Z,20.42
2022-11-28T16:08:36.798Z,24.20
2022-11-28T16:14:10.897Z,13.40
2022-11-28T16:16:57.953Z,15.82
2022-11-28T16:19:44.308Z,13.50
2022-11-28T16:22:36.213Z,14.13
2022-11-28T16:25:26.398Z,19.05
2022-11-28T16:28:40.736Z,19.85
2022-11-28T16:31:27.414Z,16.08
2022-11-28T16:34:14.667Z,14.18
2022-11-28T16:36:59.754Z,15.93
2022-11-28T16:39:45.477Z,13.18
2022-11-28T16:42:32.336Z,15.48
2022-11-28T16:45:26.829Z,15.13
2022-11-28T16:48:19.106Z,15.13
2022-11-28T16:51:14.700Z,13.52
2022-11-28T16:54:21.212Z,16.05
2022-11-28T16:57:16.664Z,16.88
2022-11-28T17:00:02.066Z,18.83
2022-11-28T17:02:52.794Z,17.88
2022-11-28T17:05:38.212Z,13.88
2022-11-28T17:08:27.545Z,13.98
2022-11-28T17:11:18.105Z,16.40
2022-11-28T17:14:08.676Z,15.77
2022-11-28T17:16:57.022Z,15.10
2022-11-28T17:19:42.981Z,15.20
2022-11-28T17:22:40.907Z,15.88
2022-11-28T17:25:26.579Z,15.32
2022-11-28T17:28:17.309Z,18.38
2022-11-28T17:31:06.146Z,18.88
2022-11-28T17:33:51.629Z,14.63
2022-11-28T17:36:37.038Z,20.40
2022-11-28T17:39:22.608Z,18.48
2022-11-28T17:42:07.962Z,17.40
2022-11-28T17:44:53.430Z,19.23
2022-11-28T17:47:39.255Z,17.58
2022-11-28T17:50:24.541Z,19.65
2022-11-28T17:53:11.937Z,18.73
2022-11-28T17:55:59.682Z,17.70
2022-11-28T17:58:45.264Z,22.23
2022-11-28T18:01:31.455Z,20.00
2022-11-28T18:04:17.328Z,16.20
2022-11-28T18:07:02.749Z,16.80
2022-11-28T18:09:48.326Z,19.90
2022-11-28T18:12:33.647Z,22.83
2022-11-28T18:15:19.017Z,22.83
2022-11-28T18:18:04.522Z,20.50
2022-11-28T18:20:49.929Z,18.95
2022-11-28T18:23:39.442Z,20.90
2022-11-28T18:26:26.119Z,20.88
2022-11-28T18:29:11.467Z,18.05
2022-11-28T18:31:57.037Z,17.48
2022-11-28T18:34:42.239Z,16.25
2022-11-28T18:37:27.821Z,17.70
2022-11-28T18:40:13.512Z,16.70
2022-11-28T18:42:58.970Z,21.00
2022-11-28T18:45:44.463Z,17.02
2022-11-28T18:48:29.802Z,17.25
2022-11-28T18:51:21.242Z,21.05
2022-11-28T18:54:06.723Z,22.50
2022-11-28T18:56:51.789Z,29.60
2022-11-28T18:59:37.255Z,19.92
2022-11-28T19:02:22.941Z,18.95
2022-11-28T19:05:08.694Z,21.42
2022-11-28T19:07:57.283Z,21.38
2022-11-28T19:10:44.238Z,14.40
2022-11-28T19:13:29.612Z,20.33
2022-11-28T19:16:17.587Z,20.98
2022-11-28T19:19:05.029Z,18.75
2022-11-28T19:21:50.838Z,20.83
2022-11-28T19:24:37.826Z,19.15
2022-11-28T19:27:23.245Z,18.52
2022-11-28T19:30:08.952Z,22.30
2022-11-28T19:32:56.232Z,23.63
2022-11-28T19:35:41.472Z,25.30
2022-11-28T19:38:27.070Z,20.88
2022-11-28T19:41:15.480Z,24.83
2022-11-28T19:44:01.394Z,25.55
2022-11-28T19:46:47.780Z,23.42
2022-11-28T19:49:33.257Z,27.10
2022-11-28T19:52:18.689Z,22.88
2022-11-28T19:55:04.318Z,23.90
2022-11-28T19:57:49.789Z,24.05
2022-11-28T20:00:35.129Z,25.35
2022-11-28T20:03:20.542Z,21.52
2022-11-28T20:06:09.876Z,20.20
2022-11-28T20:08:59.532Z,21.55
2022-11-28T20:11:45.597Z,21.50
2022-11-28T20:14:32.256Z,22.02
2022-11-28T20:17:17.601Z,23.02
2022-11-28T20:20:03.180Z,23.00
2022-11-28T20:22:48.346Z,22.48
2022-11-28T20:25:33.851Z,22.08
2022-11-28T20:28:19.139Z,22.83
2022-11-28T20:31:05.999Z,20.98
2022-11-28T20:33:52.444Z,27.17
2022-11-28T20:36:37.910Z,23.67
2022-11-28T20:39:23.110Z,19.80
2022-11-28T20:42:09.266Z,22.30
2022-11-28T20:44:54.601Z,21.92
2022-11-28T20:47:40.090Z,57.72
2022-11-28T20:50:25.509Z,28.25
2022-11-28T20:53:10.949Z,20.50
2022-11-28T20:56:05.026Z,25.95
2022-11-28T20:58:51.026Z,23.13
2022-11-28T21:01:36.922Z,19.50
2022-11-28T21:04:22.314Z,21.10
2022-11-28T21:07:07.780Z,21.17
2022-11-28T21:09:59.776Z,19.50
2022-11-28T21:12:45.120Z,25.92
2022-11-28T21:15:30.692Z,23.35
2022-11-28T21:18:16.793Z,22.50
2022-11-28T21:21:08.176Z,23.08
2022-11-28T21:23:57.856Z,20.33
2022-11-28T21:26:48.147Z,18.92
2022-11-28T21:29:37.903Z,19.95
2022-11-28T21:32:23.356Z,22.88
2022-11-28T21:35:08.964Z,18.92
2022-11-28T21:37:54.213Z,18.55
2022-11-28T21:40:39.617Z,22.40
2022-11-28T21:43:25.285Z,22.40
2022-11-28T21:46:11.810Z,23.40
2022-11-28T21:48:58.379Z,21.77
2022-11-28T21:51:43.852Z,23.17
2022-11-28T21:54:29.225Z,24.50
2022-11-28T21:57:14.653Z,20.73
2022-11-28T22:00:01.994Z,25.42
2022-11-28T22:02:49.630Z,22.73
2022-11-28T22:05:35.361Z,19.98
2022-11-28T22:08:21.151Z,21.92
2022-11-28T22:11:11.054Z,17.88
2022-11-28T22:13:56.473Z,21.60
2022-11-28T22:16:41.750Z,21.73
2022-11-28T22:19:26.988Z,21.30
2022-11-28T22:22:12.600Z,20.80
2022-11-28T22:24:57.614Z,23.70
2022-11-28T22:27:42.969Z,18.85
2022-11-28T22:30:28.700Z,19.17
2022-11-28T22:33:14.141Z,21.35
2022-11-28T22:36:11.535Z,19.83
2022-11-28T22:38:58.097Z,19.77
2022-11-28T22:41:43.381Z,17.88
2022-11-28T22:44:28.800Z,27.95
2022-11-28T22:47:14.229Z,17.08
2022-11-28T22:50:07.034Z,19.75
2022-11-28T22:52:52.469Z,18.33
2022-11-28T22:55:37.817Z,18.35
2022-11-28T22:58:23.160Z,23.00
2022-11-28T23:01:11.208Z,24.10
2022-11-28T23:03:56.608Z,17.02
2022-11-28T23:06:42.247Z,20.25
2022-11-28T23:09:27.816Z,19.15
2022-11-28T23:12:13.153Z,22.30
2022-11-28T23:14:58.492Z,18.23
2022-11-28T23:17:43.873Z,21.90
2022-11-28T23:20:29.315Z,19.90
2022-11-28T23:23:14.677Z,24.13
2022-11-28T23:26:08.682Z,18.30
2022-11-28T23:28:54.700Z,21.52
2022-11-28T23:31:41.841Z,21.92
2022-11-28T23:34:27.161Z,20.13
2022-11-28T23:37:12.464Z,21.58
2022-11-28T23:39:57.779Z,19.48
2022-11-28T23:42:43.277Z,20.50
2022-11-28T23:45:28.563Z,19.02
2022-11-28T23:48:16.194Z,17.50
2022-11-28T23:51:01.929Z,18.17
2022-11-28T23:53:48.094Z,17.05
2022-11-28T23:56:36.021Z,19.67
2022-11-28T23:59:21.250Z,19.98
